Terminal Aerodrome Forecast
Issued by NWS Detroit/Pontiac, MI

Home | Current Version | Previous Version | Text Only | Print | Product List | Glossary On
Versions: 1 2 3 4 5 6 7 8 9 10 11 12 13 14 15 16 17 18 19 20
000
FTUS43 KDTX 261141
TAFFNT
TAF
KFNT 261141Z 2612/2712 19008KT P6SM BKN250
     FM261600 21010KT P6SM OVC150
     FM270000 20008KT P6SM BKN030
     FM270700 21006KT 5SM -DZ BKN020=

USA.gov is the U.S. government's official web portal to all federal, state and local government web resources and services.